createdAt,value
2017-07-03T00:00:57.886Z,97.30
2017-07-03T00:03:25.351Z,97.30
2017-07-03T00:05:52.821Z,97.30
2017-07-03T00:08:20.270Z,97.40
2017-07-03T00:10:47.834Z,97.30
2017-07-03T00:13:15.294Z,97.40
2017-07-03T00:15:43.524Z,96.90
2017-07-03T00:18:10.990Z,96.90
2017-07-03T00:20:38.451Z,96.70
2017-07-03T00:23:05.906Z,96.80
2017-07-03T00:25:33.364Z,96.80
2017-07-03T00:28:00.939Z,96.90
2017-07-03T00:30:28.401Z,96.80
2017-07-03T00:32:55.858Z,96.90
2017-07-03T00:35:23.319Z,96.60
2017-07-03T00:37:51.585Z,97.20
2017-07-03T00:40:19.760Z,96.80
2017-07-03T00:42:47.223Z,97.00
2017-07-03T00:45:15.499Z,97.30
2017-07-03T00:47:43.722Z,97.40
2017-07-03T00:50:11.186Z,97.40
2017-07-03T00:52:38.650Z,97.50
2017-07-03T00:55:06.113Z,97.20
2017-07-03T00:57:33.575Z,97.20
2017-07-03T01:00:01.037Z,97.20
2017-07-03T01:02:28.494Z,97.20
2017-07-03T01:04:55.954Z,97.20
2017-07-03T01:07:23.423Z,97.00
2017-07-03T01:09:50.873Z,96.90
2017-07-03T01:12:18.330Z,97.30
2017-07-03T01:14:45.795Z,97.40
2017-07-03T01:17:14.026Z,97.10
2017-07-03T01:19:41.487Z,97.20
2017-07-03T01:22:08.959Z,97.20
2017-07-03T01:24:36.417Z,97.00
2017-07-03T01:27:03.887Z,96.70
2017-07-03T01:29:31.342Z,97.10
2017-07-03T01:31:58.811Z,97.30
2017-07-03T01:34:26.266Z,97.60
2017-07-03T01:36:54.515Z,97.80
2017-07-03T01:39:21.974Z,97.60
2017-07-03T01:41:49.541Z,97.30
2017-07-03T01:44:16.999Z,97.10
2017-07-03T01:46:44.507Z,97.40
2017-07-03T01:49:12.719Z,97.90
2017-07-03T01:51:40.279Z,97.80
2017-07-03T01:54:07.737Z,97.90
2017-07-03T01:56:35.207Z,98.10
2017-07-03T01:59:02.678Z,98.20
2017-07-03T02:01:30.894Z,97.70
2017-07-03T02:03:58.511Z,97.70
2017-07-03T02:06:26.059Z,97.60
2017-07-03T02:08:54.386Z,97.90
2017-07-03T02:11:22.463Z,97.90
2017-07-03T02:13:50.022Z,97.80
2017-07-03T02:16:22.908Z,97.60
2017-07-03T02:18:51.123Z,97.10
2017-07-03T02:21:20.546Z,97.20
2017-07-03T02:23:50.527Z,97.50
2017-07-03T02:26:22.971Z,97.40
2017-07-03T02:28:52.697Z,97.50
2017-07-03T02:31:20.548Z,97.50
2017-07-03T02:33:49.740Z,97.80
2017-07-03T02:36:17.549Z,98.00
2017-07-03T02:38:45.015Z,98.30
2017-07-03T02:41:12.556Z,98.20
2017-07-03T02:43:40.027Z,98.40
2017-07-03T02:46:08.259Z,97.70
2017-07-03T02:48:35.756Z,97.90
2017-07-03T02:51:03.307Z,98.00
2017-07-03T02:53:30.774Z,97.90
2017-07-03T02:55:58.234Z,97.40
2017-07-03T02:58:26.502Z,97.60
2017-07-03T03:00:53.963Z,97.60
2017-07-03T03:03:21.514Z,98.00
2017-07-03T03:05:48.978Z,98.40
2017-07-03T03:08:17.239Z,98.50
2017-07-03T03:10:44.688Z,98.70
2017-07-03T03:13:12.134Z,98.50
2017-07-03T03:15:39.607Z,98.60
2017-07-03T03:18:07.514Z,98.70
2017-07-03T03:20:34.978Z,98.80
2017-07-03T03:23:02.435Z,98.80
2017-07-03T03:25:29.902Z,99.00
2017-07-03T03:27:57.363Z,99.20
2017-07-03T03:30:24.835Z,99.00
2017-07-03T03:32:52.289Z,98.90
2017-07-03T03:35:19.759Z,99.00
2017-07-03T03:37:47.214Z,99.20
2017-07-03T03:40:14.679Z,99.10
2017-07-03T03:42:42.280Z,99.30
2017-07-03T03:45:09.735Z,99.20
2017-07-03T03:47:37.198Z,98.90
2017-07-03T03:50:04.715Z,98.90
2017-07-03T03:52:32.179Z,98.90
2017-07-03T03:54:59.647Z,98.70
2017-07-03T03:57:27.875Z,98.80
2017-07-03T03:59:55.330Z,98.50
2017-07-03T04:02:22.811Z,98.70
2017-07-03T04:04:50.268Z,98.30
2017-07-03T04:07:17.731Z,98.40
2017-07-03T04:09:45.199Z,98.00
2017-07-03T04:12:12.657Z,97.90
2017-07-03T04:14:40.119Z,97.90
2017-07-03T04:17:08.342Z,97.80
2017-07-03T04:19:35.816Z,97.80
2017-07-03T04:22:03.262Z,97.60
2017-07-03T04:24:30.731Z,97.20
2017-07-03T04:26:58.186Z,96.50
2017-07-03T04:29:25.652Z,96.90
2017-07-03T07:32:35.850Z,78.30
2017-07-03T07:35:03.329Z,78.30
2017-07-03T07:37:31.594Z,77.50
2017-07-03T07:39:59.055Z,77.50
2017-07-03T07:42:26.517Z,77.00
2017-07-03T07:44:54.828Z,75.10
2017-07-03T07:47:23.035Z,73.60
2017-07-03T07:49:50.495Z,73.50
2017-07-03T07:52:17.955Z,74.10
2017-07-03T07:54:45.411Z,72.80
2017-07-03T07:57:12.870Z,73.20
2017-07-03T07:59:40.326Z,73.30
2017-07-03T08:02:07.795Z,72.40
2017-07-03T08:04:36.281Z,71.80
2017-07-03T08:07:03.744Z,72.80
2017-07-03T08:09:31.211Z,71.80
2017-07-03T08:11:59.467Z,71.10
2017-07-03T08:14:26.937Z,71.10
2017-07-03T08:16:55.165Z,70.20
2017-07-03T08:19:22.627Z,70.30
2017-07-03T08:21:50.111Z,69.20
2017-07-03T08:24:17.565Z,68.00
2017-07-03T08:26:45.023Z,70.90
2017-07-03T08:29:12.498Z,69.50
2017-07-03T08:31:40.730Z,70.10
2017-07-03T08:34:08.189Z,69.50
2017-07-03T08:36:35.651Z,71.90
2017-07-03T08:39:03.106Z,70.50
2017-07-03T08:41:30.567Z,70.40
2017-07-03T08:43:58.031Z,68.80
2017-07-03T08:46:25.499Z,69.50
2017-07-03T08:48:52.950Z,66.60
2017-07-03T08:51:20.410Z,66.20
2017-07-03T08:53:47.966Z,67.60
2017-07-03T08:56:15.423Z,69.40
2017-07-03T08:58:42.891Z,71.60
2017-07-03T09:01:11.111Z,69.20
2017-07-03T09:03:38.612Z,68.50
2017-07-03T09:06:06.062Z,67.40
2017-07-03T09:08:33.522Z,67.70
2017-07-03T09:11:01.079Z,67.20
2017-07-03T09:13:28.542Z,64.60
2017-07-03T09:15:56.100Z,66.20
2017-07-03T09:18:23.570Z,66.30
2017-07-03T09:20:51.817Z,66.00
2017-07-03T09:23:19.266Z,66.00
2017-07-03T09:25:46.728Z,66.50
2017-07-03T09:28:14.296Z,64.90
2017-07-03T09:30:41.847Z,65.00
2017-07-03T09:33:09.301Z,63.30
2017-07-03T09:35:36.755Z,66.40
2017-07-03T09:38:04.222Z,65.10
2017-07-03T09:40:31.680Z,64.80
2017-07-03T09:42:59.147Z,64.30
2017-07-03T09:45:26.603Z,61.80
2017-07-03T09:47:54.083Z,64.30
2017-07-03T09:50:21.534Z,62.70
2017-07-03T09:52:49.747Z,61.10
2017-07-03T09:55:17.211Z,61.20
2017-07-03T09:57:44.664Z,60.60
2017-07-03T10:00:12.130Z,61.90
2017-07-03T10:02:39.593Z,59.90
2017-07-03T10:05:07.046Z,61.10
2017-07-03T10:07:34.507Z,62.30
2017-07-03T10:10:01.981Z,63.00
2017-07-03T10:12:29.446Z,60.60
2017-07-03T10:14:56.904Z,61.30
2017-07-03T10:17:24.356Z,60.90
2017-07-03T10:19:51.906Z,65.10
2017-07-03T10:22:19.362Z,60.60
2017-07-03T10:24:46.820Z,61.70
2017-07-03T10:27:14.366Z,59.20
2017-07-03T10:29:41.818Z,60.00
2017-07-03T10:32:09.299Z,60.20
2017-07-03T10:34:36.751Z,58.70
2017-07-03T10:37:04.299Z,57.00
2017-07-03T10:39:31.769Z,57.80
2017-07-03T10:41:59.218Z,57.90
2017-07-03T10:44:26.683Z,56.20
2017-07-03T10:46:54.138Z,58.00
2017-07-03T10:49:21.602Z,58.80
2017-07-03T10:51:50.434Z,58.20
2017-07-03T10:54:17.895Z,57.60
2017-07-03T10:56:45.359Z,58.10
2017-07-03T10:59:12.828Z,57.00
2017-07-03T11:01:40.287Z,58.80
2017-07-03T11:04:07.765Z,57.90
2017-07-03T11:06:35.226Z,58.40
2017-07-03T11:09:03.453Z,58.50
2017-07-03T11:11:30.942Z,58.60
2017-07-03T11:13:58.397Z,57.90
2017-07-03T11:16:25.859Z,59.10
2017-07-03T11:18:53.336Z,59.70
2017-07-03T11:21:21.586Z,58.00
2017-07-03T11:23:49.042Z,58.00
2017-07-03T11:26:16.805Z,57.50
2017-07-03T11:28:47.379Z,57.30
2017-07-03T11:31:22.629Z,58.30
2017-07-03T11:33:52.793Z,59.70
2017-07-03T11:36:25.631Z,59.00
2017-07-03T11:38:57.375Z,56.30
2017-07-03T11:41:24.832Z,56.30
2017-07-03T11:43:52.290Z,56.40
2017-07-03T11:46:19.822Z,56.20
2017-07-03T11:48:48.034Z,57.10
2017-07-03T11:51:15.882Z,56.50
2017-07-03T11:53:45.765Z,55.20
2017-07-03T11:56:13.218Z,55.80
2017-07-03T11:58:43.743Z,56.70
2017-07-03T12:01:11.186Z,55.20
2017-07-03T12:03:38.673Z,55.60
2017-07-03T12:06:08.614Z,54.30
2017-07-03T12:08:38.642Z,54.70
2017-07-03T12:11:06.091Z,55.60
2017-07-03T12:13:33.656Z,54.30
2017-07-03T12:16:03.156Z,54.00
2017-07-03T12:18:30.730Z,52.30
2017-07-03T12:20:58.178Z,51.50
2017-07-03T12:23:25.671Z,50.60
2017-07-03T12:25:53.132Z,52.00
2017-07-03T12:28:20.583Z,53.70
2017-07-03T12:30:48.610Z,53.30
2017-07-03T12:33:16.404Z,54.80
2017-07-03T12:35:45.367Z,51.90
2017-07-03T12:38:13.873Z,51.30
2017-07-03T12:40:42.897Z,53.70
2017-07-03T12:43:11.444Z,53.70
2017-07-03T12:45:38.920Z,52.20
2017-07-03T12:48:06.375Z,52.80
2017-07-03T12:50:33.843Z,50.60
2017-07-03T12:53:01.386Z,53.70
2017-07-03T12:55:28.844Z,49.80
2017-07-03T12:57:56.407Z,51.30
2017-07-03T13:00:23.864Z,51.40
2017-07-03T13:02:52.538Z,50.90
2017-07-03T13:05:20.108Z,50.30
2017-07-03T13:07:49.028Z,51.00
2017-07-03T13:10:16.486Z,50.80
2017-07-03T13:12:43.940Z,50.50
2017-07-03T13:15:11.393Z,50.30
2017-07-03T13:17:42.875Z,49.60
2017-07-03T13:20:10.987Z,49.50
2017-07-03T13:22:41.579Z,48.50
2017-07-03T13:25:09.082Z,52.80
2017-07-03T13:27:37.838Z,49.80
2017-07-03T13:30:06.791Z,50.00
2017-07-03T13:32:38.714Z,50.20
2017-07-03T13:35:06.171Z,50.20
2017-07-03T13:37:34.245Z,50.70
2017-07-03T13:40:02.485Z,49.80
2017-07-03T13:42:29.963Z,49.60
2017-07-03T13:44:57.428Z,49.30
2017-07-03T13:47:24.993Z,48.90
2017-07-03T13:49:52.554Z,50.30
2017-07-03T13:52:20.022Z,50.60
2017-07-03T13:54:48.943Z,50.50
2017-07-03T13:57:17.424Z,50.40
2017-07-03T13:59:44.881Z,49.60
2017-07-03T14:02:13.328Z,52.50
2017-07-03T14:04:41.550Z,53.70
2017-07-03T14:07:09.163Z,53.10
2017-07-03T14:09:37.383Z,50.40
2017-07-03T14:12:04.847Z,50.40
2017-07-03T14:14:32.295Z,49.80
2017-07-03T14:16:59.845Z,51.40
2017-07-03T14:19:29.774Z,50.40
2017-07-03T14:21:57.279Z,49.90
2017-07-03T14:24:25.490Z,50.00
2017-07-03T14:26:54.699Z,50.10
2017-07-03T14:29:22.150Z,48.60
2017-07-03T14:31:49.602Z,50.00
2017-07-03T14:34:17.064Z,50.30
2017-07-03T14:36:44.514Z,50.40
2017-07-03T14:39:11.977Z,50.10
2017-07-03T14:41:39.466Z,48.00
2017-07-03T14:44:11.828Z,48.70
2017-07-03T14:46:39.275Z,50.80
2017-07-03T14:49:07.662Z,51.60
2017-07-03T14:54:10.674Z,48.00
2017-07-03T14:56:40.142Z,48.00
2017-07-03T14:59:10.360Z,48.80
2017-07-03T15:01:42.694Z,48.50
2017-07-03T15:04:10.928Z,46.10
2017-07-03T15:06:38.991Z,46.10
2017-07-03T15:09:10.931Z,46.90
2017-07-03T15:11:39.654Z,47.10
2017-07-03T15:14:07.222Z,46.90
2017-07-03T15:16:36.436Z,46.90
2017-07-03T15:19:06.493Z,45.60
2017-07-03T15:21:34.402Z,45.60
2017-07-03T15:24:02.822Z,46.60
2017-07-03T15:26:31.038Z,48.00
2017-07-03T15:28:58.493Z,48.00
2017-07-03T15:31:28.086Z,47.20
2017-07-03T15:33:55.538Z,46.00
2017-07-03T15:36:23.000Z,47.00
2017-07-03T15:38:50.458Z,47.00
2017-07-03T15:41:18.018Z,46.50
2017-07-03T15:43:45.482Z,48.30
2017-07-03T15:46:12.939Z,48.70
2017-07-03T15:48:40.515Z,46.60
2017-07-03T15:51:07.980Z,47.70
2017-07-03T15:53:35.439Z,48.60
2017-07-03T15:56:02.898Z,48.70
2017-07-03T15:58:30.358Z,48.60
2017-07-03T16:00:58.587Z,46.40
2017-07-03T16:03:26.065Z,46.30
2017-07-03T16:05:53.517Z,46.90
2017-07-03T16:08:20.980Z,47.50
2017-07-03T16:10:48.426Z,46.50
2017-07-03T16:13:15.914Z,46.70
2017-07-03T16:15:43.535Z,47.00
2017-07-03T16:18:11.006Z,49.00
2017-07-03T16:20:38.466Z,49.60
2017-07-03T16:23:06.102Z,48.90
2017-07-03T16:25:33.591Z,47.60
2017-07-03T16:28:01.048Z,46.40
2017-07-03T16:30:28.601Z,44.90
2017-07-03T16:32:56.167Z,46.00
2017-07-03T16:35:23.627Z,45.30
2017-07-03T16:37:51.178Z,47.50
2017-07-03T16:40:18.642Z,48.70
2017-07-03T16:42:46.101Z,48.90
2017-07-03T16:45:13.647Z,50.10
2017-07-03T16:47:41.576Z,50.00
2017-07-03T16:50:11.641Z,50.70
2017-07-03T16:52:39.108Z,49.00
2017-07-03T16:55:07.747Z,47.70
2017-07-03T16:57:35.215Z,47.60
2017-07-03T17:00:03.491Z,48.00
2017-07-03T17:02:32.594Z,47.10
2017-07-03T17:05:00.064Z,46.20
2017-07-03T17:07:31.768Z,46.80
2017-07-03T17:09:59.281Z,46.60
2017-07-03T17:12:26.737Z,47.10
2017-07-03T17:14:55.925Z,47.10
2017-07-03T17:17:26.203Z,46.60
2017-07-03T17:19:53.657Z,48.50
2017-07-03T17:22:21.124Z,49.00
2017-07-03T17:24:48.578Z,48.40
2017-07-03T17:27:16.034Z,48.80
2017-07-03T17:29:44.010Z,48.70
2017-07-03T17:32:12.706Z,48.10
2017-07-03T17:34:40.167Z,48.10
2017-07-03T17:37:07.618Z,49.00
2017-07-03T17:39:35.188Z,49.60
2017-07-03T17:42:02.652Z,51.00
2017-07-03T17:44:30.111Z,51.00
2017-07-03T17:46:57.663Z,51.00
2017-07-03T17:49:25.149Z,51.80
2017-07-03T17:51:52.685Z,51.40
2017-07-03T17:54:20.130Z,51.90
2017-07-03T17:56:47.674Z,52.20
2017-07-03T17:59:15.163Z,53.00
2017-07-03T18:01:42.623Z,53.30
2017-07-03T18:04:10.068Z,53.30
2017-07-03T18:06:37.537Z,52.30
2017-07-03T18:09:06.514Z,52.40
2017-07-03T18:11:34.069Z,52.20
2017-07-03T18:14:01.627Z,51.80
2017-07-03T18:16:29.086Z,52.00
2017-07-03T18:18:56.543Z,52.10
2017-07-03T18:21:24.022Z,51.60
2017-07-03T18:23:52.276Z,52.10
2017-07-03T18:26:20.691Z,52.00
2017-07-03T18:28:48.206Z,52.10
2017-07-03T18:31:15.765Z,51.40
2017-07-03T18:33:43.229Z,51.80
2017-07-03T18:36:10.684Z,52.10
2017-07-03T18:38:38.151Z,52.10
2017-07-03T18:41:06.379Z,53.40
2017-07-03T18:43:33.886Z,52.80
2017-07-03T18:46:02.113Z,53.50
2017-07-03T18:48:29.799Z,53.50
2017-07-03T18:50:57.254Z,54.20
2017-07-03T18:53:24.702Z,54.80
2017-07-03T18:55:52.191Z,54.60
2017-07-03T18:58:20.418Z,55.70
2017-07-03T19:00:47.873Z,55.60
2017-07-03T19:03:15.672Z,56.40
2017-07-03T19:05:43.752Z,56.60
2017-07-03T19:08:11.304Z,57.00
2017-07-03T19:10:40.998Z,58.60
2017-07-03T19:13:08.471Z,58.00
2017-07-03T19:15:36.846Z,58.40
2017-07-03T19:18:04.299Z,58.20
2017-07-03T19:20:32.324Z,58.90
2017-07-03T19:22:59.762Z,59.20
2017-07-03T19:25:27.206Z,59.00
2017-07-03T19:27:54.677Z,58.80
2017-07-03T19:30:22.196Z,59.90
2017-07-03T19:32:49.655Z,60.30
2017-07-03T19:35:17.115Z,59.70
2017-07-03T19:37:44.813Z,59.80
2017-07-03T19:40:13.019Z,60.20
2017-07-03T19:42:40.633Z,61.80
2017-07-03T19:45:08.078Z,61.80
2017-07-03T19:47:35.535Z,61.20
2017-07-03T19:50:03.759Z,62.20
2017-07-03T19:52:31.336Z,62.10
2017-07-03T19:54:58.786Z,61.90
2017-07-03T19:57:27.897Z,62.40
2017-07-03T19:59:55.456Z,63.20
2017-07-03T20:02:22.911Z,62.40
2017-07-03T20:04:50.371Z,63.40
2017-07-03T20:07:17.823Z,63.10
2017-07-03T20:09:45.313Z,63.50
2017-07-03T20:12:12.762Z,64.10
2017-07-03T20:14:41.151Z,67.00
2017-07-03T20:17:08.602Z,67.00
2017-07-03T20:19:36.073Z,65.20
2017-07-03T20:22:03.527Z,66.20
2017-07-03T20:24:31.042Z,66.60
2017-07-03T20:26:59.332Z,66.90
2017-07-03T20:29:27.600Z,68.50
2017-07-03T20:31:55.063Z,67.50
2017-07-03T20:34:23.287Z,67.90
2017-07-03T20:36:50.763Z,67.10
2017-07-03T20:39:18.220Z,67.10
2017-07-03T20:41:45.981Z,67.80
2017-07-03T20:44:13.424Z,67.40
2017-07-03T20:46:42.906Z,68.10
2017-07-03T20:49:10.387Z,68.20
2017-07-03T20:51:37.842Z,68.60
2017-07-03T20:54:05.595Z,68.90
2017-07-03T20:56:34.662Z,69.10
2017-07-03T20:59:02.139Z,69.10
2017-07-03T21:01:29.582Z,69.10
2017-07-03T21:03:57.056Z,68.90
2017-07-03T21:06:24.519Z,70.00
2017-07-03T21:08:51.974Z,69.80
2017-07-03T21:11:19.479Z,70.70
2017-07-03T21:13:46.934Z,69.60
2017-07-03T21:16:15.167Z,69.20
2017-07-03T21:18:42.622Z,69.00
2017-07-03T21:21:10.479Z,69.70
2017-07-03T21:23:37.970Z,69.50
2017-07-03T21:26:05.435Z,69.60
2017-07-03T21:28:32.906Z,69.90
2017-07-03T21:31:00.371Z,69.70
2017-07-03T21:33:28.622Z,70.50
2017-07-03T21:35:56.839Z,70.50
2017-07-03T21:38:24.544Z,71.60
2017-07-03T21:40:51.998Z,71.00
2017-07-03T21:43:19.469Z,70.70
2017-07-03T21:45:46.959Z,70.80
2017-07-03T21:48:14.423Z,71.70
2017-07-03T21:50:41.874Z,71.60
2017-07-03T21:53:09.401Z,71.60
2017-07-03T21:55:36.953Z,72.10
2017-07-03T21:58:04.440Z,72.60
2017-07-03T22:02:36.846Z,72.70
2017-07-03T22:05:04.906Z,73.50
2017-07-03T22:07:32.364Z,73.00
2017-07-03T22:09:59.830Z,73.30
2017-07-03T22:12:28.052Z,73.50
2017-07-03T22:14:55.525Z,73.80
2017-07-03T22:17:23.754Z,75.30
2017-07-03T22:19:51.214Z,74.40
2017-07-03T22:22:18.679Z,75.10
2017-07-03T22:24:46.134Z,75.60
2017-07-03T22:27:13.618Z,76.30
2017-07-03T22:29:41.071Z,74.50
2017-07-03T22:32:10.150Z,74.50
2017-07-03T22:34:37.616Z,74.90
2017-07-03T22:37:05.957Z,74.50
2017-07-03T22:39:33.423Z,76.20
2017-07-03T22:42:00.886Z,77.50
2017-07-03T22:44:28.340Z,77.80
2017-07-03T22:46:56.636Z,79.40
2017-07-03T22:49:24.400Z,78.90
2017-07-03T22:51:51.869Z,79.70
2017-07-03T22:54:19.374Z,80.80
2017-07-03T22:56:46.826Z,81.30
2017-07-03T22:59:14.300Z,81.70
2017-07-03T23:01:41.753Z,82.40
2017-07-03T23:04:09.226Z,84.00
2017-07-03T23:06:36.687Z,82.20
2017-07-03T23:09:04.150Z,83.00
2017-07-03T23:11:31.605Z,83.40
2017-07-03T23:14:01.070Z,83.10
2017-07-03T23:16:31.474Z,83.10
2017-07-03T23:19:00.857Z,82.70
2017-07-03T23:21:29.610Z,83.70
2017-07-03T23:24:00.374Z,83.70
2017-07-03T23:26:31.268Z,85.50
2017-07-03T23:28:58.722Z,85.40
2017-07-03T23:31:26.335Z,86.30
2017-07-03T23:33:54.638Z,85.00
2017-07-03T23:36:22.107Z,84.20
2017-07-03T23:38:54.434Z,85.70
2017-07-03T23:41:26.054Z,87.00
2017-07-03T23:43:54.215Z,86.20
2017-07-03T23:46:21.669Z,85.40
2017-07-03T23:48:53.555Z,86.10
2017-07-03T23:51:22.723Z,85.60
2017-07-03T23:53:50.209Z,85.30
2017-07-03T23:56:17.666Z,86.70
2017-07-03T23:58:45.135Z,85.60
